Time;durP1;ratioP1;P1;durP2;ratioP2;P2;SDS_P1;SDS_P2;PMS_P1;PMS_P2;Temp;Humidity;BMP_temperature;BMP_pressure;BME280_temperature;BME280_humidity;BME280_pressure;Samples;Min_cycle;Max_cycle;Signal;HPM_P1;HPM_P2
2022/01/13 00:02:31;;;;;;;18.92;9.10;;;3.00;99.90;;;;;;5046109;28;20401;-65
2022/01/13 00:04:58;;;;;;;20.08;10.07;;;2.80;99.90;;;;;;5046747;28;20416;-67
2022/01/13 00:07:25;;;;;;;26.35;10.65;;;2.70;99.90;;;;;;5046909;28;20045;-66
2022/01/13 00:09:52;;;;;;;26.23;12.18;;;2.70;99.90;;;;;;5047369;28;20137;-66
2022/01/13 00:12:21;;;;;;;26.55;13.25;;;2.70;99.90;;;;;;5046386;28;20040;-67
2022/01/13 00:15:08;;;;;;;29.88;15.43;;;2.70;99.90;;;;;;5047599;28;20045;-66
2022/01/13 00:20:30;;;;;;;36.22;15.60;;;2.80;99.90;;;;;;5049838;28;20136;-66
2022/01/13 00:25:55;;;;;;;35.65;15.63;;;2.80;99.90;;;;;;5048583;28;20099;-66
2022/01/13 00:28:23;;;;;;;36.90;16.67;;;2.80;99.90;;;;;;5047332;28;20052;-67
2022/01/13 00:30:53;;;;;;;35.55;15.75;;;2.70;99.90;;;;;;5048047;28;20534;-68
2022/01/13 00:33:24;;;;;;;30.75;15.13;;;2.70;99.90;;;;;;5047564;28;20045;-65
2022/01/13 00:35:52;;;;;;;36.92;14.55;;;2.70;99.90;;;;;;5048160;28;20052;-66
2022/01/13 00:38:19;;;;;;;37.33;13.18;;;2.70;99.90;;;;;;5047630;28;20562;-65
2022/01/13 00:40:46;;;;;;;29.98;12.05;;;2.70;99.90;;;;;;5048400;28;20049;-66
2022/01/13 00:43:13;;;;;;;29.30;12.35;;;2.70;99.90;;;;;;5047732;28;20037;-66
2022/01/13 00:45:40;;;;;;;27.60;12.48;;;2.70;99.90;;;;;;5048037;28;20080;-66
2022/01/13 00:48:07;;;;;;;28.27;12.13;;;2.70;99.90;;;;;;5047752;28;20479;-65
2022/01/13 00:50:34;;;;;;;29.95;13.15;;;2.80;99.90;;;;;;5047000;28;20118;-66
2022/01/13 00:53:01;;;;;;;28.05;15.27;;;2.70;99.90;;;;;;5047657;28;20048;-66
2022/01/13 00:55:47;;;;;;;24.60;11.68;;;2.70;99.90;;;;;;5047842;28;20055;-65
2022/01/13 00:58:14;;;;;;;39.42;11.85;;;2.70;99.90;;;;;;5050298;28;20049;-65
2022/01/13 01:00:41;;;;;;;27.85;11.00;;;2.70;99.90;;;;;;5050128;28;20048;-66
2022/01/13 01:03:08;;;;;;;18.23;8.95;;;2.70;99.90;;;;;;5049232;28;20045;-67
2022/01/13 01:05:36;;;;;;;27.33;9.77;;;2.70;99.90;;;;;;5048871;28;20059;-66
2022/01/13 01:08:03;;;;;;;22.92;10.27;;;2.60;99.90;;;;;;5048659;28;20090;-66
2022/01/13 01:10:30;;;;;;;23.55;10.75;;;2.60;99.90;;;;;;5047677;28;20049;-65
2022/01/13 01:12:57;;;;;;;21.42;10.63;;;2.60;99.90;;;;;;5049053;28;20045;-65
2022/01/13 01:15:25;;;;;;;21.92;10.55;;;2.60;99.90;;;;;;5049570;28;20060;-65
2022/01/13 01:18:00;;;;;;;24.92;9.93;;;2.60;99.90;;;;;;5050248;28;20073;-66
2022/01/13 01:20:30;;;;;;;27.83;9.77;;;2.50;99.90;;;;;;5047861;28;20464;-66
2022/01/13 01:23:10;;;;;;;20.05;9.68;;;2.50;99.90;;;;;;5047758;28;20056;-64
2022/01/13 01:25:46;;;;;;;23.30;11.57;;;2.50;99.90;;;;;;5047472;28;20111;-66
2022/01/13 01:28:21;;;;;;;21.10;9.50;;;2.50;99.90;;;;;;5046660;28;20049;-66
2022/01/13 01:30:51;;;;;;;19.67;9.38;;;2.50;99.90;;;;;;5047311;28;20052;-67
2022/01/13 01:33:27;;;;;;;22.58;9.85;;;2.40;99.90;;;;;;5012774;28;10000611;-66
2022/01/13 01:35:55;;;;;;;24.55;10.40;;;2.60;99.90;;;;;;5043430;28;20245;-66
2022/01/13 01:38:22;;;;;;;26.77;9.18;;;2.40;99.90;;;;;;5048199;28;20041;-66
2022/01/13 01:40:48;;;;;;;24.30;8.35;;;2.40;99.90;;;;;;5051009;28;20098;-66
2022/01/13 01:43:15;;;;;;;21.42;9.20;;;2.30;99.90;;;;;;5050925;28;20067;-65
2022/01/13 01:45:48;;;;;;;19.20;8.45;;;2.30;99.90;;;;;;5051127;28;20053;-64
2022/01/13 01:48:19;;;;;;;24.80;10.25;;;2.30;99.90;;;;;;5050861;28;20072;-65
2022/01/13 01:50:55;;;;;;;24.92;9.55;;;2.30;99.90;;;;;;5050541;28;20107;-65
2022/01/13 01:53:23;;;;;;;21.02;10.60;;;2.30;99.90;;;;;;5050857;28;20447;-65
2022/01/13 01:55:51;;;;;;;17.75;9.00;;;2.30;99.90;;;;;;5050655;28;20044;-65
2022/01/13 01:58:18;;;;;;;31.17;9.45;;;2.30;99.90;;;;;;5049733;28;20385;-65
2022/01/13 02:00:45;;;;;;;26.20;9.68;;;2.30;99.90;;;;;;5050988;28;20049;-66
2022/01/13 02:03:12;;;;;;;17.77;10.10;;;2.30;99.90;;;;;;5051713;28;20055;-67
2022/01/13 02:05:39;;;;;;;27.10;10.60;;;2.30;99.90;;;;;;5051556;28;20045;-66
2022/01/13 02:08:05;;;;;;;20.20;9.25;;;2.30;99.90;;;;;;5052484;28;20044;-67
2022/01/13 02:10:32;;;;;;;19.20;9.25;;;2.20;99.90;;;;;;5052126;28;20053;-66
2022/01/13 02:13:05;;;;;;;22.55;11.85;;;2.20;99.90;;;;;;5051215;28;20045;-66
2022/01/13 02:15:46;;;;;;;24.73;12.00;;;2.20;99.90;;;;;;5050515;28;20118;-67
2022/01/13 02:18:13;;;;;;;20.05;12.38;;;2.20;99.90;;;;;;5051597;28;20049;-68
2022/01/13 02:20:45;;;;;;;22.73;11.55;;;2.20;99.90;;;;;;5051055;28;20127;-67
2022/01/13 02:23:12;;;;;;;24.33;11.18;;;2.20;99.90;;;;;;5049883;28;20107;-66
2022/01/13 02:25:38;;;;;;;24.48;11.10;;;2.10;99.90;;;;;;5050989;28;20049;-66
2022/01/13 02:28:05;;;;;;;30.95;10.68;;;2.10;99.90;;;;;;5049959;28;20479;-67
2022/01/13 02:30:32;;;;;;;23.02;11.15;;;2.40;99.90;;;;;;5050452;28;20091;-66
2022/01/13 02:32:59;;;;;;;23.13;10.60;;;2.10;99.90;;;;;;5049643;28;20555;-66
2022/01/13 02:35:34;;;;;;;25.15;11.65;;;2.00;99.90;;;;;;5050401;28;20114;-65
2022/01/13 02:38:01;;;;;;;27.35;11.75;;;2.00;99.90;;;;;;5049460;28;20490;-67
2022/01/13 02:40:28;;;;;;;29.05;11.70;;;2.10;99.90;;;;;;5050276;28;20496;-68
2022/01/13 02:42:54;;;;;;;23.83;11.10;;;2.00;99.90;;;;;;5048426;28;20071;-67
2022/01/13 02:45:26;;;;;;;26.60;13.02;;;2.00;99.90;;;;;;5050217;28;20080;-67
2022/01/13 02:48:30;;;;;;;27.20;10.25;;;2.00;99.90;;;;;;5049852;28;20299;-66
2022/01/13 02:50:46;;;;;;;21.80;11.13;;;2.00;99.90;;;;;;5048649;28;20045;-66
2022/01/13 02:53:13;;;;;;;19.45;10.60;;;2.00;99.90;;;;;;5049296;28;20087;-67
2022/01/13 02:55:39;;;;;;;20.05;11.02;;;1.90;99.90;;;;;;5048473;28;20459;-67
2022/01/13 02:58:07;;;;;;;29.55;12.15;;;1.90;99.90;;;;;;5048332;28;20045;-67
2022/01/13 03:00:34;;;;;;;27.55;11.75;;;1.90;99.90;;;;;;5049882;28;20110;-67
2022/01/13 03:03:01;;;;;;;26.58;12.00;;;1.90;99.90;;;;;;5049048;28;20071;-67
2022/01/13 03:05:27;;;;;;;26.23;13.25;;;1.90;99.90;;;;;;5049178;28;20084;-66
2022/01/13 03:07:54;;;;;;;28.77;11.20;;;1.90;99.90;;;;;;5048019;28;20095;-67
2022/01/13 03:10:21;;;;;;;28.08;10.98;;;1.90;99.90;;;;;;5049511;28;20037;-67
2022/01/13 03:12:48;;;;;;;22.08;10.73;;;1.90;99.90;;;;;;5049263;28;20080;-67
2022/01/13 03:15:15;;;;;;;19.17;10.35;;;1.80;99.90;;;;;;5045886;28;20037;-67
2022/01/13 03:17:42;;;;;;;20.27;10.27;;;1.80;99.90;;;;;;5049292;28;20053;-68
2022/01/13 03:20:09;;;;;;;20.67;11.32;;;1.80;99.90;;;;;;5049018;28;20095;-67
2022/01/13 03:22:36;;;;;;;20.67;10.60;;;1.80;99.90;;;;;;5049166;28;20088;-67
2022/01/13 03:25:03;;;;;;;22.48;10.35;;;1.80;99.90;;;;;;5049022;28;20082;-67
2022/01/13 03:27:34;;;;;;;24.30;9.80;;;1.80;99.90;;;;;;5049483;28;20053;-66
2022/01/13 03:30:06;;;;;;;19.30;9.63;;;1.80;99.90;;;;;;5049025;28;20044;-66
2022/01/13 03:32:34;;;;;;;24.75;10.35;;;1.70;99.90;;;;;;5031304;28;20101;-66
2022/01/13 03:35:01;;;;;;;17.92;8.98;;;1.70;99.90;;;;;;5047519;28;20044;-67
2022/01/13 03:37:28;;;;;;;30.27;10.02;;;1.70;99.90;;;;;;5049421;28;20106;-66
2022/01/13 03:39:55;;;;;;;18.95;10.13;;;1.60;99.90;;;;;;5048793;28;20059;-67
2022/01/13 03:42:22;;;;;;;25.25;10.93;;;1.60;99.90;;;;;;5049040;28;20141;-67
2022/01/13 03:44:49;;;;;;;23.08;11.32;;;1.60;99.90;;;;;;5048753;28;20462;-66
2022/01/13 03:47:15;;;;;;;20.65;9.32;;;1.60;99.90;;;;;;5048793;28;20049;-66
2022/01/13 03:49:42;;;;;;;20.52;9.55;;;1.60;99.90;;;;;;5048460;28;20045;-66
2022/01/13 03:52:13;;;;;;;19.52;9.18;;;1.60;99.90;;;;;;5047462;28;20049;-67
2022/01/13 03:54:58;;;;;;;19.27;8.23;;;1.60;99.90;;;;;;5048711;28;20094;-67
2022/01/13 03:57:57;;;;;;;18.00;7.38;;;1.60;99.90;;;;;;5040558;28;20049;-67
2022/01/13 04:00:50;;;;;;;21.98;8.52;;;1.60;99.90;;;;;;5048501;28;20080;-67
2022/01/13 04:03:18;;;;;;;19.90;8.77;;;1.60;99.90;;;;;;5035138;28;20045;-66
2022/01/13 04:06:03;;;;;;;17.08;8.98;;;1.60;99.90;;;;;;5040795;28;20087;-66
2022/01/13 04:08:31;;;;;;;21.42;8.35;;;1.60;99.90;;;;;;5049211;28;20110;-65
2022/01/13 04:11:03;;;;;;;18.85;8.57;;;1.60;99.90;;;;;;5048647;28;20566;-65
2022/01/13 04:13:55;;;;;;;20.10;9.73;;;1.60;99.90;;;;;;5049537;28;20071;-66
2022/01/13 04:16:27;;;;;;;14.55;8.02;;;1.60;99.90;;;;;;5048913;28;20048;-66
2022/01/13 04:18:58;;;;;;;15.10;8.68;;;1.60;99.90;;;;;;5048449;28;20052;-65
2022/01/13 04:21:25;;;;;;;15.52;8.00;;;1.60;99.90;;;;;;5048213;28;20064;-66
2022/01/13 04:23:56;;;;;;;19.73;9.43;;;1.50;99.90;;;;;;5048359;28;20045;-67
2022/01/13 04:26:28;;;;;;;21.08;9.00;;;1.50;99.90;;;;;;5048069;28;20045;-67
2022/01/13 04:31:32;;;;;;;25.00;8.85;;;1.50;99.90;;;;;;5048445;28;20146;-67
2022/01/13 04:33:59;;;;;;;17.58;8.77;;;1.50;99.90;;;;;;5050365;28;20041;-67
2022/01/13 04:36:25;;;;;;;21.55;8.93;;;1.50;99.90;;;;;;5051385;28;20072;-67
2022/01/13 04:38:52;;;;;;;16.55;9.50;;;1.50;99.90;;;;;;5047231;28;20053;-67
2022/01/13 04:41:30;;;;;;;24.52;7.88;;;1.50;99.90;;;;;;5048087;28;20049;-66
2022/01/13 04:43:57;;;;;;;16.27;7.40;;;1.50;99.90;;;;;;5048864;28;20110;-66
2022/01/13 04:46:24;;;;;;;19.63;7.78;;;1.50;99.90;;;;;;5047843;28;20041;-65
2022/01/13 04:48:51;;;;;;;17.05;7.97;;;1.50;99.90;;;;;;5046636;28;20041;-64
2022/01/13 04:51:18;;;;;;;16.13;6.85;;;1.40;99.90;;;;;;5047862;28;20477;-65
2022/01/13 04:53:45;;;;;;;17.23;6.80;;;1.50;99.90;;;;;;5047834;28;20092;-65
2022/01/13 04:56:15;;;;;;;13.70;6.45;;;1.50;99.90;;;;;;5048682;28;20083;-66
2022/01/13 04:58:42;;;;;;;14.57;5.68;;;1.60;99.90;;;;;;5046047;28;20415;-64
2022/01/13 05:01:09;;;;;;;14.18;6.20;;;1.50;99.90;;;;;;5049309;28;20496;-67
2022/01/13 05:03:36;;;;;;;11.85;5.10;;;1.50;99.90;;;;;;5047305;28;20092;-66
2022/01/13 05:06:03;;;;;;;11.18;6.82;;;1.50;99.90;;;;;;5047852;28;20478;-66
2022/01/13 05:08:30;;;;;;;12.32;6.60;;;1.50;99.90;;;;;;5047413;28;20053;-65
2022/01/13 05:10:57;;;;;;;15.20;6.05;;;1.50;99.90;;;;;;5047653;28;20049;-67
2022/01/13 05:13:23;;;;;;;14.80;6.20;;;1.40;99.90;;;;;;5048055;28;20515;-67
2022/01/13 05:15:52;;;;;;;15.63;7.88;;;1.40;99.90;;;;;;5051535;28;20480;-67
2022/01/13 05:21:05;;;;;;;10.75;5.03;;;1.40;99.90;;;;;;5051533;28;20045;-66
2022/01/13 05:23:32;;;;;;;13.27;6.57;;;1.40;99.90;;;;;;5051102;28;20049;-66
2022/01/13 05:25:59;;;;;;;13.45;5.80;;;1.40;99.90;;;;;;5050329;28;20519;-67
2022/01/13 05:28:26;;;;;;;16.83;6.88;;;1.40;99.90;;;;;;5050927;28;20048;-67
2022/01/13 05:30:52;;;;;;;18.88;6.18;;;1.40;99.90;;;;;;5051540;28;20115;-68
2022/01/13 05:33:19;;;;;;;11.65;5.80;;;1.40;99.90;;;;;;5051028;28;20041;-66
2022/01/13 05:35:46;;;;;;;14.50;5.88;;;1.40;99.90;;;;;;5051675;28;20049;-67
2022/01/13 05:38:13;;;;;;;13.90;5.45;;;1.40;99.90;;;;;;5052234;28;20072;-67
2022/01/13 05:40:40;;;;;;;18.63;5.03;;;1.40;99.90;;;;;;5052431;28;20079;-68
2022/01/13 05:43:07;;;;;;;10.65;5.47;;;1.40;99.90;;;;;;5050429;28;20044;-67
2022/01/13 05:45:38;;;;;;;9.18;4.68;;;1.30;99.90;;;;;;5051508;28;20098;-67
2022/01/13 05:48:05;;;;;;;13.13;5.50;;;1.30;99.90;;;;;;5050605;28;20041;-66
2022/01/13 05:50:33;;;;;;;13.32;5.53;;;1.30;99.90;;;;;;5049937;28;20103;-67
2022/01/13 05:52:59;;;;;;;17.00;6.05;;;1.30;99.90;;;;;;5050600;28;20087;-67
2022/01/13 05:55:26;;;;;;;8.52;5.63;;;1.30;99.90;;;;;;5049522;28;20045;-66
2022/01/13 05:57:53;;;;;;;18.45;6.47;;;1.20;99.90;;;;;;5050804;28;20130;-67
2022/01/13 06:00:21;;;;;;;10.00;5.30;;;1.20;99.90;;;;;;5050303;28;20095;-68
2022/01/13 06:02:48;;;;;;;11.15;5.70;;;1.30;99.90;;;;;;5050617;28;20080;-67
2022/01/13 06:05:15;;;;;;;12.73;5.43;;;1.30;99.90;;;;;;5051260;28;20056;-66
2022/01/13 06:07:42;;;;;;;19.42;6.63;;;1.30;99.90;;;;;;5051318;28;20049;-67
2022/01/13 06:10:10;;;;;;;11.45;5.85;;;1.30;99.90;;;;;;5050919;28;20429;-67
2022/01/13 06:12:37;;;;;;;12.02;5.07;;;1.30;99.90;;;;;;5050525;28;20092;-67
2022/01/13 06:15:08;;;;;;;14.73;6.00;;;1.30;99.90;;;;;;5050128;28;20045;-67
2022/01/13 06:17:36;;;;;;;20.65;6.72;;;1.30;99.90;;;;;;5050457;28;20604;-65
2022/01/13 06:20:04;;;;;;;10.32;4.55;;;1.30;99.90;;;;;;5049067;28;20041;-67
2022/01/13 06:22:31;;;;;;;12.32;4.68;;;1.30;99.90;;;;;;5050237;28;20057;-66
2022/01/13 06:24:58;;;;;;;13.15;6.35;;;1.30;99.90;;;;;;5049002;28;20464;-66
2022/01/13 06:27:25;;;;;;;17.88;6.38;;;1.20;99.90;;;;;;5050305;28;20321;-66
2022/01/13 06:29:52;;;;;;;13.70;5.85;;;1.30;99.90;;;;;;5049736;28;20487;-66
2022/01/13 06:32:19;;;;;;;13.98;5.20;;;1.30;99.90;;;;;;5050172;28;20190;-65
2022/01/13 06:34:46;;;;;;;10.15;4.85;;;1.30;99.90;;;;;;5049399;28;20037;-65
2022/01/13 06:37:13;;;;;;;12.70;4.72;;;1.30;99.90;;;;;;5048360;28;20048;-66
2022/01/13 06:39:40;;;;;;;11.18;4.68;;;1.30;99.90;;;;;;5047483;28;20118;-65
2022/01/13 06:42:16;;;;;;;9.77;4.05;;;1.30;99.90;;;;;;5044176;28;20126;-65
2022/01/13 06:44:46;;;;;;;17.02;4.53;;;1.30;99.90;;;;;;5049147;28;20045;-65
2022/01/13 06:47:13;;;;;;;12.68;5.72;;;1.30;99.90;;;;;;5049033;28;20081;-66
2022/01/13 06:49:39;;;;;;;16.38;5.13;;;1.30;99.90;;;;;;5049691;28;20041;-66
2022/01/13 06:52:06;;;;;;;8.57;4.30;;;1.40;99.90;;;;;;5048747;28;20053;-65
2022/01/13 06:54:33;;;;;;;8.85;4.88;;;1.20;99.90;;;;;;5049459;28;20041;-68
2022/01/13 06:57:02;;;;;;;11.60;5.20;;;1.30;99.90;;;;;;5049290;28;20526;-67
2022/01/13 06:59:29;;;;;;;12.45;6.32;;;1.30;99.90;;;;;;5048653;28;20045;-66
2022/01/13 07:01:59;;;;;;;12.68;5.15;;;1.30;99.90;;;;;;5049992;28;20126;-66
2022/01/13 07:04:27;;;;;;;13.88;6.50;;;1.20;99.90;;;;;;5049385;28;20084;-66
2022/01/13 07:06:54;;;;;;;16.17;7.22;;;1.20;99.90;;;;;;5051137;28;20088;-67
2022/01/13 07:09:21;;;;;;;13.25;6.22;;;1.30;99.90;;;;;;5049920;28;20051;-63
2022/01/13 07:11:48;;;;;;;14.27;6.88;;;1.20;99.90;;;;;;5049211;28;20049;-66
2022/01/13 07:14:15;;;;;;;12.27;6.93;;;1.20;99.90;;;;;;5048670;28;20053;-65
2022/01/13 07:16:42;;;;;;;18.48;7.70;;;1.20;99.90;;;;;;5049001;28;20064;-64
2022/01/13 07:19:10;;;;;;;16.00;7.18;;;1.20;99.90;;;;;;5046751;28;20053;-66
2022/01/13 07:21:39;;;;;;;11.07;5.90;;;1.30;99.90;;;;;;5048606;28;20053;-66
2022/01/13 07:24:06;;;;;;;13.48;6.35;;;1.20;99.90;;;;;;5048295;28;20121;-66
2022/01/13 07:26:33;;;;;;;13.68;6.70;;;1.20;99.90;;;;;;5047798;28;20095;-66
2022/01/13 07:29:00;;;;;;;15.82;7.57;;;1.20;99.90;;;;;;5048362;28;20044;-65
2022/01/13 07:31:28;;;;;;;16.35;8.60;;;1.20;99.90;;;;;;5048393;28;20051;-64
2022/01/13 07:33:55;;;;;;;18.55;7.63;;;1.20;99.90;;;;;;5048235;28;20049;-66
2022/01/13 07:36:22;;;;;;;23.00;8.23;;;1.30;99.90;;;;;;5047956;28;20040;-65
2022/01/13 07:38:49;;;;;;;16.40;7.32;;;1.20;99.90;;;;;;5047604;28;20508;-67
2022/01/13 07:41:15;;;;;;;15.27;8.02;;;1.20;99.90;;;;;;5047437;28;20056;-67
2022/01/13 07:43:47;;;;;;;13.52;7.47;;;1.30;99.90;;;;;;5045231;28;20283;-67
2022/01/13 07:46:14;;;;;;;18.42;8.77;;;1.10;99.90;;;;;;5044884;28;20041;-68
2022/01/13 07:48:41;;;;;;;16.83;8.63;;;1.20;99.90;;;;;;5046256;28;20048;-67
2022/01/13 07:51:08;;;;;;;17.88;8.02;;;1.10;99.90;;;;;;5045711;28;20041;-67
2022/01/13 07:53:35;;;;;;;14.13;7.50;;;1.10;99.90;;;;;;5044069;28;20049;-67
2022/01/13 07:56:02;;;;;;;15.00;7.78;;;1.10;99.90;;;;;;5046602;28;20103;-67
2022/01/13 07:58:29;;;;;;;21.08;9.32;;;1.20;99.90;;;;;;5046179;28;20095;-64
2022/01/13 08:00:55;;;;;;;14.98;8.13;;;1.20;99.90;;;;;;5042814;28;20049;-67
2022/01/13 08:03:22;;;;;;;19.63;8.32;;;1.20;99.90;;;;;;5045110;28;20515;-68
2022/01/13 08:05:49;;;;;;;21.20;8.90;;;1.20;99.90;;;;;;5046418;28;20077;-69
2022/01/13 08:08:16;;;;;;;18.05;8.30;;;1.20;99.90;;;;;;5043696;28;20488;-67
2022/01/13 08:10:43;;;;;;;16.23;7.72;;;1.20;99.90;;;;;;5046217;28;20056;-68
2022/01/13 08:13:10;;;;;;;15.45;7.50;;;1.20;99.90;;;;;;5047938;28;20061;-71
2022/01/13 08:15:37;;;;;;;14.60;7.85;;;1.20;99.90;;;;;;5046358;28;20053;-68
2022/01/13 08:20:49;;;;;;;18.45;7.72;;;1.20;99.90;;;;;;5049747;28;20044;-68
2022/01/13 08:23:16;;;;;;;15.20;7.47;;;1.20;99.90;;;;;;5048347;28;20053;-67
2022/01/13 08:25:43;;;;;;;18.15;8.32;;;1.30;99.90;;;;;;5048269;28;20536;-68
2022/01/13 08:28:11;;;;;;;18.20;8.23;;;1.30;99.90;;;;;;5048800;28;20095;-68
2022/01/13 08:30:39;;;;;;;22.50;8.45;;;1.30;99.90;;;;;;5046977;28;20566;-67
2022/01/13 08:33:06;;;;;;;18.23;7.53;;;1.20;99.90;;;;;;5047982;28;20056;-68
2022/01/13 08:35:33;;;;;;;20.20;6.90;;;1.20;99.90;;;;;;5047884;28;20500;-66
2022/01/13 08:38:06;;;;;;;17.95;8.50;;;1.20;99.90;;;;;;5048066;28;20448;-69
2022/01/13 08:40:34;;;;;;;12.48;6.63;;;1.20;99.90;;;;;;5049276;28;20045;-68
2022/01/13 08:43:04;;;;;;;15.80;7.30;;;1.20;99.90;;;;;;5048845;28;20084;-68
2022/01/13 08:45:31;;;;;;;21.65;8.77;;;1.30;99.90;;;;;;5047887;28;20124;-67
2022/01/13 08:47:58;;;;;;;16.70;8.50;;;1.30;99.90;;;;;;5047558;28;20045;-68
2022/01/13 08:50:25;;;;;;;19.77;9.45;;;1.40;99.90;;;;;;5050211;28;20049;-66
2022/01/13 08:53:00;;;;;;;18.20;8.60;;;1.50;99.90;;;;;;5041050;28;20052;-67
2022/01/13 08:55:27;;;;;;;22.77;8.40;;;1.50;99.90;;;;;;5049382;28;20484;-68
2022/01/13 08:57:54;;;;;;;16.23;8.10;;;1.60;99.90;;;;;;5050292;28;20049;-69
2022/01/13 09:00:21;;;;;;;19.50;8.88;;;1.60;99.90;;;;;;5050904;28;20059;-67
2022/01/13 09:02:48;;;;;;;20.35;8.52;;;1.70;99.90;;;;;;5049981;28;20094;-67
2022/01/13 09:05:16;;;;;;;16.73;8.68;;;1.70;99.90;;;;;;5051319;28;20128;-68
2022/01/13 09:07:43;;;;;;;16.42;7.78;;;1.80;99.90;;;;;;5050215;28;20128;-67
2022/01/13 09:10:12;;;;;;;16.83;7.90;;;1.80;99.90;;;;;;5050891;28;20049;-67
2022/01/13 09:12:38;;;;;;;17.70;9.63;;;1.80;99.90;;;;;;5051219;28;20049;-67
2022/01/13 09:15:25;;;;;;;22.58;9.07;;;1.90;99.90;;;;;;5051068;28;20052;-67
2022/01/13 09:17:53;;;;;;;18.95;9.75;;;1.90;99.90;;;;;;5040767;28;20053;-68
2022/01/13 09:20:20;;;;;;;19.65;9.77;;;2.00;99.90;;;;;;5050859;28;20464;-67
2022/01/13 09:22:47;;;;;;;23.58;9.02;;;2.10;99.90;;;;;;5050506;28;20053;-67
2022/01/13 09:25:14;;;;;;;14.77;7.80;;;2.20;99.90;;;;;;5050905;28;20052;-67
2022/01/13 09:27:41;;;;;;;20.30;8.60;;;2.20;99.90;;;;;;5051374;28;20084;-67
2022/01/13 09:30:13;;;;;;;20.48;8.43;;;2.20;99.90;;;;;;5051837;28;20056;-67
2022/01/13 09:32:40;;;;;;;18.50;8.93;;;2.30;99.90;;;;;;5048970;28;20045;-66
2022/01/13 09:35:07;;;;;;;20.67;9.35;;;2.30;99.90;;;;;;5052985;28;20069;-67
2022/01/13 09:37:34;;;;;;;24.23;7.40;;;2.40;99.90;;;;;;5052313;28;20102;-67
2022/01/13 09:40:01;;;;;;;19.38;8.55;;;2.40;99.90;;;;;;5054117;28;20454;-67
2022/01/13 09:42:28;;;;;;;19.63;7.65;;;2.50;99.90;;;;;;5054512;28;20045;-71
2022/01/13 09:44:57;;;;;;;17.17;8.02;;;3.10;99.90;;;;;;5035215;28;20578;-69
2022/01/13 09:47:24;;;;;;;25.23;7.60;;;2.60;99.90;;;;;;5051031;28;20122;-67
2022/01/13 09:49:51;;;;;;;18.90;8.70;;;2.70;99.90;;;;;;5051543;28;20049;-66
2022/01/13 09:52:20;;;;;;;15.32;6.35;;;2.70;99.90;;;;;;5051387;28;20087;-67
2022/01/13 09:54:48;;;;;;;11.93;6.35;;;2.80;99.90;;;;;;5051524;28;20071;-67
2022/01/13 09:57:15;;;;;;;17.13;7.57;;;2.80;99.90;;;;;;5049983;28;20095;-67
2022/01/13 09:59:41;;;;;;;16.15;7.57;;;2.90;99.90;;;;;;5050198;28;20268;-68
2022/01/13 10:02:09;;;;;;;18.20;8.25;;;3.00;99.90;;;;;;5051036;28;20048;-68
2022/01/13 10:04:46;;;;;;;19.25;8.00;;;3.10;99.90;;;;;;5051612;28;20045;-68
2022/01/13 10:07:17;;;;;;;18.63;8.25;;;3.10;99.90;;;;;;5052936;28;20587;-67
2022/01/13 10:09:55;;;;;;;23.95;7.63;;;3.20;99.90;;;;;;5050849;28;20287;-67
2022/01/13 10:12:35;;;;;;;23.55;8.77;;;3.40;99.90;;;;;;5049941;28;20178;-67
2022/01/13 10:17:47;;;;;;;24.55;9.10;;;3.50;99.90;;;;;;5050364;28;20503;-68
2022/01/13 10:20:15;;;;;;;17.23;9.38;;;3.60;99.90;;;;;;5049973;28;20499;-67
2022/01/13 10:22:41;;;;;;;18.45;9.15;;;3.70;99.90;;;;;;5050300;28;20084;-67
2022/01/13 10:25:30;;;;;;;24.50;10.10;;;3.80;99.90;;;;;;5050381;28;20049;-67
2022/01/13 10:28:11;;;;;;;18.20;8.25;;;3.80;99.90;;;;;;5050452;28;20537;-67
2022/01/13 10:30:38;;;;;;;20.70;8.13;;;3.90;99.90;;;;;;5050873;28;20472;-67
2022/01/13 10:33:15;;;;;;;23.45;8.50;;;4.00;99.90;;;;;;5049610;28;20099;-67
2022/01/13 10:35:46;;;;;;;21.13;8.25;;;4.10;99.90;;;;;;5050559;28;20049;-66
2022/01/13 10:38:16;;;;;;;19.45;7.28;;;4.20;99.90;;;;;;5050069;28;20064;-68
2022/01/13 10:40:46;;;;;;;18.83;7.25;;;4.20;99.90;;;;;;5049173;28;20444;-68
2022/01/13 10:43:15;;;;;;;14.90;7.53;;;4.30;99.90;;;;;;5049881;28;20045;-68
2022/01/13 10:46:02;;;;;;;18.00;6.88;;;4.40;99.90;;;;;;5039100;28;20076;-68
2022/01/13 10:48:30;;;;;;;20.35;7.07;;;4.50;99.90;;;;;;5049574;28;20064;-68
2022/01/13 10:50:59;;;;;;;20.83;8.35;;;4.60;99.90;;;;;;5032894;28;20060;-68
2022/01/13 10:53:40;;;;;;;17.48;6.22;;;4.60;99.90;;;;;;5049818;28;20378;-67
2022/01/13 10:56:11;;;;;;;18.95;6.93;;;4.80;99.90;;;;;;5038896;28;20049;-68
2022/01/13 10:58:47;;;;;;;13.77;6.07;;;4.80;99.90;;;;;;5049727;28;20063;-68
2022/01/13 11:01:19;;;;;;;19.08;6.68;;;5.00;99.90;;;;;;5039653;28;20110;-70
2022/01/13 11:03:47;;;;;;;20.15;6.80;;;5.10;99.90;;;;;;5049462;28;20049;-68
2022/01/13 11:06:18;;;;;;;13.63;5.93;;;5.10;99.90;;;;;;5049609;28;20056;-67
2022/01/13 11:08:47;;;;;;;22.50;5.63;;;5.30;99.90;;;;;;5049509;28;20095;-67
2022/01/13 11:11:21;;;;;;;12.75;4.40;;;5.40;99.90;;;;;;5049140;28;20037;-70
2022/01/13 11:13:54;;;;;;;12.77;5.63;;;5.60;99.90;;;;;;5049640;28;20122;-68
2022/01/13 11:16:21;;;;;;;23.08;7.10;;;5.70;99.90;;;;;;5045485;28;20102;-68
2022/01/13 11:18:51;;;;;;;15.10;4.53;;;5.80;99.90;;;;;;5049674;28;20048;-68
2022/01/13 11:21:18;;;;;;;19.40;4.63;;;5.90;99.90;;;;;;5047506;28;20068;-68
2022/01/13 11:23:48;;;;;;;8.80;4.32;;;6.00;99.90;;;;;;5049506;28;20516;-68
2022/01/13 11:26:15;;;;;;;15.15;4.72;;;6.10;99.90;;;;;;5047952;28;20048;-67
2022/01/13 11:28:42;;;;;;;15.95;5.40;;;6.20;99.90;;;;;;5046010;28;20088;-68
2022/01/13 11:31:10;;;;;;;23.60;7.03;;;6.20;99.90;;;;;;5048899;28;20044;-68
2022/01/13 11:33:38;;;;;;;10.02;5.20;;;6.30;99.90;;;;;;5028174;28;20049;-67
2022/01/13 11:36:06;;;;;;;16.33;5.47;;;6.30;99.90;;;;;;5043976;28;20053;-68
2022/01/13 11:38:33;;;;;;;15.10;5.68;;;6.40;99.90;;;;;;5049501;28;20118;-67
2022/01/13 11:41:05;;;;;;;8.25;3.42;;;6.50;99.90;;;;;;5048053;28;20041;-67
2022/01/13 11:43:34;;;;;;;12.45;3.92;;;6.60;99.90;;;;;;5048171;28;20092;-67
2022/01/13 11:46:12;;;;;;;16.85;3.00;;;6.60;99.90;;;;;;5048938;28;20041;-67
2022/01/13 11:49:20;;;;;;;8.63;2.15;;;6.70;99.90;;;;;;5031497;28;20056;-67
2022/01/13 11:51:56;;;;;;;8.85;2.33;;;6.80;99.90;;;;;;5047879;28;20041;-66
2022/01/13 11:54:33;;;;;;;7.13;2.22;;;6.90;99.90;;;;;;5028418;28;20050;-67
2022/01/13 11:57:25;;;;;;;10.57;1.85;;;6.90;99.90;;;;;;5050228;28;20491;-67
2022/01/13 11:59:58;;;;;;;12.70;3.00;;;6.90;99.90;;;;;;5050078;28;20048;-67
2022/01/13 12:02:26;;;;;;;14.95;2.80;;;7.00;99.90;;;;;;5048960;28;20079;-67
2022/01/13 12:05:03;;;;;;;8.25;2.55;;;7.00;99.90;;;;;;5048872;28;20045;-68
2022/01/13 12:07:38;;;;;;;18.55;2.80;;;7.10;99.90;;;;;;5047783;28;20049;-66
2022/01/13 12:10:05;;;;;;;9.27;3.40;;;7.10;99.90;;;;;;5048990;28;20110;-64
2022/01/13 12:12:34;;;;;;;10.50;3.65;;;7.20;99.90;;;;;;5049155;28;20049;-67
2022/01/13 12:15:19;;;;;;;11.65;2.67;;;7.30;99.90;;;;;;5049311;28;20099;-70
2022/01/13 12:17:53;;;;;;;10.10;3.33;;;7.40;99.40;;;;;;5049800;28;20056;-67
2022/01/13 12:20:23;;;;;;;9.27;2.42;;;7.40;99.90;;;;;;5051447;28;20175;-67
2022/01/13 12:23:16;;;;;;;14.85;3.03;;;7.50;99.90;;;;;;5051152;28;20451;-67
2022/01/13 12:25:37;;;;;;;9.80;2.85;;;7.50;99.90;;;;;;5044455;28;20483;-68
2022/01/13 12:28:15;;;;;;;14.80;3.30;;;7.40;99.80;;;;;;5050207;28;20053;-68
2022/01/13 12:30:42;;;;;;;8.93;2.72;;;7.50;98.90;;;;;;5049311;28;20052;-67
2022/01/13 12:33:11;;;;;;;22.10;2.53;;;7.60;98.60;;;;;;5046732;28;20049;-68
2022/01/13 12:35:37;;;;;;;12.45;2.65;;;7.80;97.40;;;;;;5047237;28;20053;-68
2022/01/13 12:38:12;;;;;;;13.95;3.05;;;7.90;98.30;;;;;;5048413;28;20107;-68
2022/01/13 12:40:48;;;;;;;5.60;2.28;;;7.90;97.80;;;;;;5046979;28;20045;-68
2022/01/13 12:43:33;;;;;;;8.55;3.10;;;7.90;97.40;;;;;;5046806;28;20272;-68
2022/01/13 12:46:21;;;;;;;16.73;3.95;;;8.00;96.70;;;;;;5028581;28;20128;-69
2022/01/13 12:48:49;;;;;;;12.88;3.58;;;8.10;94.20;;;;;;5043931;28;20051;-67
2022/01/13 12:51:18;;;;;;;8.52;4.03;;;8.10;96.90;;;;;;5048506;28;20060;-68
2022/01/13 12:53:45;;;;;;;14.60;6.35;;;8.10;96.90;;;;;;5048425;28;20084;-67
2022/01/13 12:56:16;;;;;;;10.40;4.95;;;8.10;96.40;;;;;;5051229;28;20095;-66
2022/01/13 12:58:45;;;;;;;20.60;5.50;;;8.20;96.00;;;;;;5050727;28;20467;-66
2022/01/13 13:01:17;;;;;;;18.60;5.13;;;8.20;96.50;;;;;;5051198;28;20432;-68
2022/01/13 13:04:08;;;;;;;10.05;4.20;;;8.20;96.30;;;;;;5046052;28;20057;-67
2022/01/13 13:06:43;;;;;;;15.18;3.55;;;8.20;94.10;;;;;;5050633;28;20044;-69
2022/01/13 13:09:28;;;;;;;8.65;2.63;;;8.30;93.90;;;;;;5050314;28;20061;-71
2022/01/13 13:12:01;;;;;;;11.90;2.72;;;8.30;93.90;;;;;;5028611;28;20050;-67
2022/01/13 13:14:33;;;;;;;14.25;3.15;;;8.40;94.10;;;;;;5044884;28;20451;-68
2022/01/13 13:17:00;;;;;;;9.80;3.83;;;8.40;93.70;;;;;;5050091;28;20133;-71